PWSweather.com
Personal Weather Stations
Station Observations
KTXPLANO70
Kemper Estates, Plano, TX

Kemper EstatesPlano, TX

Lat: 33.0674, Lon: -96.7659

Elevation: 737

Station Type: Davis Vantage Pro2

http://www.dallasdawg.com

High Low Average
Temperature 66.5°F19.2°C 37.2°F2.9°C 51.0°F10.6°C
Dew Point 40.1°F4.5°C 25.0°F-3.9°C 34.1°F1.2°C
Winds 9.2 mph 14.8 kmh Calm Calm 2.0 mph S3.2 kmh S
Wind Gusts 16.1 mph25.9 kmh -- 3.0 mph4.8 kmh
Humidity 81% 21% 56%
Pressure 30.32 in1026.8 mb 30.21 in1023.0 mb -
Precipitation 0.00 in0.0 mm - -
Hour Temp Dew Point Humidity Winds Wind Gusts Pressure Precip Precip Rate Daily Precip Total
12:00 AM 41.1°F5.1°C 32.4°F0.2°C 71% 2.3 mph SW3.7 kmh SW 3.5 mph5.6 kmh 30.26 in1024.7 mb - 0.00 in0.0 mm 0.00 in0.0 mm
12:10 AM 41.3°F5.2°C 32.6°F0.3°C 71% 2.3 mph SW3.7 kmh SW 3.5 mph5.6 kmh 30.26 in1024.7 mb - 0.00 in0.0 mm 0.00 in0.0 mm
12:15 AM 41.1°F5.1°C 32.4°F0.2°C 71% 2.3 mph SW3.7 kmh SW 3.5 mph5.6 kmh 30.26 in1024.7 mb - 0.00 in0.0 mm 0.00 in0.0 mm
12:20 AM 41.1°F5.1°C 32.4°F0.2°C 71% 1.2 mph SW1.9 kmh SW 3.5 mph5.6 kmh 30.26 in1024.7 mb - 0.00 in0.0 mm 0.00 in0.0 mm
12:25 AM 41.4°F5.2°C 32.3°F0.2°C 70% 1.2 mph SW1.9 kmh SW 2.3 mph3.7 kmh 30.26 in1024.7 mb - 0.00 in0.0 mm 0.00 in0.0 mm
12:30 AM 41.6°F5.3°C 32.5°F0.3°C 70% Calm Calm -- 30.26 in1024.7 mb - 0.00 in0.0 mm 0.00 in0.0 mm
12:35 AM 41.6°F5.3°C 32.2°F0.1°C 69% Calm Calm -- 30.26 in1024.7 mb - 0.00 in0.0 mm 0.00 in0.0 mm
12:40 AM 41.5°F5.3°C 32.4°F0.2°C 70% Calm Calm -- 30.25 in1024.4 mb - 0.00 in0.0 mm 0.00 in0.0 mm
12:45 AM 41.4°F5.2°C 32.3°F0.2°C 70% Calm Calm -- 30.25 in1024.4 mb - 0.00 in0.0 mm 0.00 in0.0 mm
12:50 AM 41.3°F5.2°C 32.2°F0.1°C 70% 1.2 mph SW1.9 kmh SW 2.3 mph3.7 kmh 30.25 in1024.4 mb - 0.00 in0.0 mm 0.00 in0.0 mm
12:55 AM 41.2°F5.1°C 32.2°F0.1°C 70% 1.2 mph SW1.9 kmh SW 1.2 mph1.9 kmh 30.25 in1024.4 mb - 0.00 in0.0 mm 0.00 in0.0 mm
01:00 AM 40.9°F4.9°C 32.2°F0.1°C 71% Calm Calm -- 30.25 in1024.4 mb - 0.00 in0.0 mm 0.00 in0.0 mm
01:10 AM 40.6°F4.8°C 31.9°F-0.1°C 71% Calm Calm 1.2 mph1.9 kmh 30.25 in1024.4 mb - 0.00 in0.0 mm 0.00 in0.0 mm
01:15 AM 40.6°F4.8°C 31.9°F-0.1°C 71% 1.2 mph WSW1.9 kmh WSW 3.5 mph5.6 kmh 30.25 in1024.4 mb - 0.00 in0.0 mm 0.00 in0.0 mm
01:20 AM 40.7°F4.8°C 32.1°F0.1°C 71% 1.2 mph WSW1.9 kmh WSW 2.3 mph3.7 kmh 30.25 in1024.4 mb - 0.00 in0.0 mm 0.00 in0.0 mm
01:25 AM 40.8°F4.9°C 31.8°F-0.1°C 70% Calm Calm -- 30.24 in1024.0 mb - 0.00 in0.0 mm 0.00 in0.0 mm
01:30 AM 40.6°F4.8°C 32.0°F0.0°C 71% Calm Calm -- 30.24 in1024.0 mb - 0.00 in0.0 mm 0.00 in0.0 mm
01:35 AM 40.1°F4.5°C 31.8°F-0.1°C 72% Calm Calm -- 30.24 in1024.0 mb - 0.00 in0.0 mm 0.00 in0.0 mm
01:40 AM 39.7°F4.3°C 31.8°F-0.1°C 73% 1.2 mph WSW1.9 kmh WSW 2.3 mph3.7 kmh 30.25 in1024.4 mb - 0.00 in0.0 mm 0.00 in0.0 mm
01:45 AM 39.6°F4.2°C 31.7°F-0.2°C 73% 1.2 mph WSW1.9 kmh WSW 2.3 mph3.7 kmh 30.25 in1024.4 mb - 0.00 in0.0 mm 0.00 in0.0 mm
01:50 AM 39.6°F4.2°C 32.0°F0.0°C 74% Calm Calm -- 30.25 in1024.4 mb - 0.00 in0.0 mm 0.00 in0.0 mm
01:55 AM 39.7°F4.3°C 31.8°F-0.1°C 73% Calm Calm -- 30.25 in1024.4 mb - 0.00 in0.0 mm 0.00 in0.0 mm
02:00 AM 39.1°F3.9°C 31.2°F-0.4°C 73% Calm Calm -- 30.25 in1024.4 mb - 0.00 in0.0 mm 0.00 in0.0 mm
02:10 AM 38.2°F3.4°C 31.0°F-0.6°C 75% Calm Calm -- 30.25 in1024.4 mb - 0.00 in0.0 mm 0.00 in0.0 mm
02:15 AM 37.9°F3.3°C 30.7°F-0.7°C 75% Calm Calm -- 30.25 in1024.4 mb - 0.00 in0.0 mm 0.00 in0.0 mm
02:20 AM 37.7°F3.2°C 30.8°F-0.7°C 76% Calm Calm -- 30.25 in1024.4 mb - 0.00 in0.0 mm 0.00 in0.0 mm
02:25 AM 37.5°F3.1°C 30.9°F-0.6°C 77% Calm Calm -- 30.25 in1024.4 mb - 0.00 in0.0 mm 0.00 in0.0 mm
02:30 AM 37.3°F2.9°C 31.1°F-0.5°C 78% Calm Calm -- 30.25 in1024.4 mb - 0.00 in0.0 mm 0.00 in0.0 mm
02:35 AM 37.3°F2.9°C 31.4°F-0.3°C 79% Calm Calm -- 30.25 in1024.4 mb - 0.00 in0.0 mm 0.00 in0.0 mm
02:40 AM 37.2°F2.9°C 31.6°F-0.2°C 80% Calm Calm -- 30.25 in1024.4 mb - 0.00 in0.0 mm 0.00 in0.0 mm
02:45 AM 37.2°F2.9°C 31.9°F-0.1°C 81% Calm Calm -- 30.26 in1024.7 mb - 0.00 in0.0 mm 0.00 in0.0 mm
02:50 AM 37.5°F3.1°C 32.2°F0.1°C 81% Calm Calm -- 30.26 in1024.7 mb - 0.00 in0.0 mm 0.00 in0.0 mm
02:55 AM 37.8°F3.2°C 32.1°F0.1°C 80% Calm Calm -- 30.26 in1024.7 mb - 0.00 in0.0 mm 0.00 in0.0 mm
03:00 AM 38.0°F3.3°C 32.4°F0.2°C 80% Calm Calm -- 30.26 in1024.7 mb - 0.00 in0.0 mm 0.00 in0.0 mm
03:10 AM 38.2°F3.4°C 32.5°F0.3°C 80% Calm Calm -- 30.25 in1024.4 mb - 0.00 in0.0 mm 0.00 in0.0 mm
03:15 AM 38.3°F3.5°C 32.7°F0.4°C 80% Calm Calm -- 30.25 in1024.4 mb - 0.00 in0.0 mm 0.00 in0.0 mm
03:20 AM 38.4°F3.6°C 32.8°F0.4°C 80% Calm Calm -- 30.26 in1024.7 mb - 0.00 in0.0 mm 0.00 in0.0 mm
03:25 AM 38.6°F3.7°C 33.0°F0.6°C 80% Calm Calm -- 30.26 in1024.7 mb - 0.00 in0.0 mm 0.00 in0.0 mm
03:30 AM 38.9°F3.8°C 32.9°F0.5°C 79% Calm Calm -- 30.26 in1024.7 mb - 0.00 in0.0 mm 0.00 in0.0 mm
03:35 AM 39.3°F4.1°C 33.0°F0.6°C 78% Calm Calm -- 30.25 in1024.4 mb - 0.00 in0.0 mm 0.00 in0.0 mm
03:40 AM 39.4°F4.1°C 33.4°F0.8°C 79% Calm Calm -- 30.25 in1024.4 mb - 0.00 in0.0 mm 0.00 in0.0 mm
03:45 AM 39.5°F4.2°C 33.2°F0.7°C 78% Calm Calm -- 30.25 in1024.4 mb - 0.00 in0.0 mm 0.00 in0.0 mm
03:50 AM 39.5°F4.2°C 33.2°F0.7°C 78% Calm Calm -- 30.25 in1024.4 mb - 0.00 in0.0 mm 0.00 in0.0 mm
03:55 AM 40.0°F4.4°C 33.3°F0.7°C 77% Calm Calm -- 30.25 in1024.4 mb - 0.00 in0.0 mm 0.00 in0.0 mm
04:00 AM 40.0°F4.4°C 33.4°F0.8°C 77% Calm Calm -- 30.25 in1024.4 mb - 0.00 in0.0 mm 0.00 in0.0 mm
04:10 AM 40.0°F4.4°C 33.4°F0.8°C 77% Calm Calm 2.3 mph3.7 kmh 30.25 in1024.4 mb - 0.00 in0.0 mm 0.00 in0.0 mm
04:15 AM 40.1°F4.5°C 33.5°F0.8°C 77% 1.2 mph SE1.9 kmh SE 2.3 mph3.7 kmh 30.25 in1024.4 mb - 0.00 in0.0 mm 0.00 in0.0 mm
04:20 AM 40.3°F4.6°C 33.3°F0.7°C 76% 1.2 mph SE1.9 kmh SE 3.5 mph5.6 kmh 30.25 in1024.4 mb - 0.00 in0.0 mm 0.00 in0.0 mm
04:25 AM 40.3°F4.6°C 33.4°F0.8°C 76% Calm Calm -- 30.25 in1024.4 mb - 0.00 in0.0 mm 0.00 in0.0 mm
04:30 AM 40.8°F4.9°C 33.1°F0.6°C 74% Calm Calm 2.3 mph3.7 kmh 30.24 in1024.0 mb - 0.00 in0.0 mm 0.00 in0.0 mm
04:35 AM 40.7°F4.8°C 33.1°F0.6°C 74% Calm Calm 1.2 mph1.9 kmh 30.24 in1024.0 mb - 0.00 in0.0 mm 0.00 in0.0 mm
04:40 AM 40.6°F4.8°C 33.3°F0.7°C 75% Calm Calm -- 30.25 in1024.4 mb - 0.00 in0.0 mm 0.00 in0.0 mm
04:45 AM 40.5°F4.7°C 33.2°F0.7°C 75% Calm Calm 1.2 mph1.9 kmh 30.24 in1024.0 mb - 0.00 in0.0 mm 0.00 in0.0 mm
04:50 AM 41.0°F5.0°C 33.0°F0.6°C 73% Calm Calm 1.2 mph1.9 kmh 30.24 in1024.0 mb - 0.00 in0.0 mm 0.00 in0.0 mm
04:55 AM 41.3°F5.2°C 33.0°F0.6°C 72% 1.2 mph SE1.9 kmh SE 2.3 mph3.7 kmh 30.24 in1024.0 mb - 0.00 in0.0 mm 0.00 in0.0 mm
05:00 AM 41.4°F5.2°C 33.0°F0.6°C 72% Calm Calm -- 30.24 in1024.0 mb - 0.00 in0.0 mm 0.00 in0.0 mm
05:10 AM 41.5°F5.3°C 33.1°F0.6°C 72% Calm Calm -- 30.24 in1024.0 mb - 0.00 in0.0 mm 0.00 in0.0 mm
05:15 AM 41.2°F5.1°C 33.2°F0.7°C 73% Calm Calm -- 30.25 in1024.4 mb - 0.00 in0.0 mm 0.00 in0.0 mm
05:20 AM 41.3°F5.2°C 33.0°F0.6°C 72% Calm Calm -- 30.25 in1024.4 mb - 0.00 in0.0 mm 0.00 in0.0 mm
05:25 AM 41.6°F5.3°C 33.2°F0.7°C 72% Calm Calm -- 30.25 in1024.4 mb - 0.00 in0.0 mm 0.00 in0.0 mm
05:30 AM 41.2°F5.1°C 33.2°F0.7°C 73% Calm Calm -- 30.25 in1024.4 mb - 0.00 in0.0 mm 0.00 in0.0 mm
05:35 AM 41.0°F5.0°C 33.4°F0.8°C 74% Calm Calm -- 30.26 in1024.7 mb - 0.00 in0.0 mm 0.00 in0.0 mm
05:40 AM 41.1°F5.1°C 33.4°F0.8°C 74% Calm Calm -- 30.26 in1024.7 mb - 0.00 in0.0 mm 0.00 in0.0 mm
05:45 AM 40.8°F4.9°C 33.5°F0.8°C 75% Calm Calm -- 30.26 in1024.7 mb - 0.00 in0.0 mm 0.00 in0.0 mm
05:50 AM 41.0°F5.0°C 33.3°F0.7°C 74% Calm Calm -- 30.26 in1024.7 mb - 0.00 in0.0 mm 0.00 in0.0 mm
05:55 AM 40.7°F4.8°C 33.4°F0.8°C 75% Calm Calm -- 30.26 in1024.7 mb - 0.00 in0.0 mm 0.00 in0.0 mm
06:00 AM 40.6°F4.8°C 33.3°F0.7°C 75% 1.2 mph E1.9 kmh E 1.2 mph1.9 kmh 30.27 in1025.1 mb - 0.00 in0.0 mm 0.00 in0.0 mm
06:10 AM 40.9°F4.9°C 32.9°F0.5°C 73% Calm Calm -- 30.26 in1024.7 mb - 0.00 in0.0 mm 0.00 in0.0 mm
06:15 AM 41.8°F5.4°C 32.8°F0.4°C 70% 1.2 mph ESE1.9 kmh ESE 2.3 mph3.7 kmh 30.26 in1024.7 mb - 0.00 in0.0 mm 0.00 in0.0 mm
06:20 AM 42.1°F5.6°C 33.0°F0.6°C 70% Calm Calm 2.3 mph3.7 kmh 30.26 in1024.7 mb - 0.00 in0.0 mm 0.00 in0.0 mm
06:25 AM 42.3°F5.7°C 32.8°F0.4°C 69% Calm Calm 1.2 mph1.9 kmh 30.26 in1024.7 mb - 0.00 in0.0 mm 0.00 in0.0 mm
06:30 AM 42.4°F5.8°C 32.6°F0.3°C 68% Calm Calm -- 30.26 in1024.7 mb - 0.00 in0.0 mm 0.00 in0.0 mm
06:35 AM 42.4°F5.8°C 32.6°F0.3°C 68% Calm Calm -- 30.26 in1024.7 mb - 0.00 in0.0 mm 0.00 in0.0 mm
06:40 AM 42.2°F5.7°C 32.8°F0.4°C 69% Calm Calm 2.3 mph3.7 kmh 30.26 in1024.7 mb - 0.00 in0.0 mm 0.00 in0.0 mm
06:45 AM 42.1°F5.6°C 33.0°F0.6°C 70% Calm Calm 1.2 mph1.9 kmh 30.27 in1025.1 mb - 0.00 in0.0 mm 0.00 in0.0 mm
06:50 AM 41.7°F5.4°C 33.0°F0.6°C 71% Calm Calm -- 30.27 in1025.1 mb - 0.00 in0.0 mm 0.00 in0.0 mm
06:55 AM 41.5°F5.3°C 33.5°F0.8°C 73% Calm Calm -- 30.27 in1025.1 mb - 0.00 in0.0 mm 0.00 in0.0 mm
07:00 AM 41.2°F5.1°C 33.2°F0.7°C 73% Calm Calm -- 30.27 in1025.1 mb - 0.00 in0.0 mm 0.00 in0.0 mm
07:10 AM 41.0°F5.0°C 33.3°F0.7°C 74% Calm Calm 1.2 mph1.9 kmh 30.28 in1025.4 mb - 0.00 in0.0 mm 0.00 in0.0 mm
07:15 AM 40.7°F4.8°C 33.4°F0.8°C 75% 1.2 mph ESE1.9 kmh ESE 3.5 mph5.6 kmh 30.27 in1025.1 mb - 0.00 in0.0 mm 0.00 in0.0 mm
07:20 AM 40.8°F4.9°C 32.8°F0.4°C 73% 2.3 mph SE3.7 kmh SE 3.5 mph5.6 kmh 30.27 in1025.1 mb - 0.00 in0.0 mm 0.00 in0.0 mm
07:25 AM 41.4°F5.2°C 32.4°F0.2°C 70% 2.3 mph SE3.7 kmh SE 3.5 mph5.6 kmh 30.27 in1025.1 mb - 0.00 in0.0 mm 0.00 in0.0 mm
07:30 AM 42.1°F5.6°C 32.3°F0.2°C 68% 2.3 mph ESE3.7 kmh ESE 3.5 mph5.6 kmh 30.27 in1025.1 mb - 0.00 in0.0 mm 0.00 in0.0 mm
07:35 AM 42.3°F5.7°C 32.1°F0.1°C 67% 2.3 mph SE3.7 kmh SE 4.6 mph7.4 kmh 30.27 in1025.1 mb - 0.00 in0.0 mm 0.00 in0.0 mm
07:40 AM 42.5°F5.8°C 31.5°F-0.3°C 65% 2.3 mph SE3.7 kmh SE 4.6 mph7.4 kmh 30.27 in1025.1 mb - 0.00 in0.0 mm 0.00 in0.0 mm
07:45 AM 43.4°F6.3°C 30.9°F-0.6°C 61% 1.2 mph SE1.9 kmh SE 3.5 mph5.6 kmh 30.27 in1025.1 mb - 0.00 in0.0 mm 0.00 in0.0 mm
07:50 AM 44.2°F6.8°C 30.8°F-0.7°C 59% 2.3 mph SE3.7 kmh SE 3.5 mph5.6 kmh 30.27 in1025.1 mb - 0.00 in0.0 mm 0.00 in0.0 mm
07:55 AM 45.0°F7.2°C 31.1°F-0.5°C 58% 3.5 mph SE5.6 kmh SE 4.6 mph7.4 kmh 30.28 in1025.4 mb - 0.00 in0.0 mm 0.00 in0.0 mm
08:00 AM 45.7°F7.6°C 30.4°F-0.9°C 55% 4.6 mph SE7.4 kmh SE 8.1 mph13.0 kmh 30.28 in1025.4 mb - 0.00 in0.0 mm 0.00 in0.0 mm
08:10 AM 46.4°F8.0°C 30.6°F-0.8°C 54% 1.2 mph SE1.9 kmh SE 3.5 mph5.6 kmh 30.28 in1025.4 mb - 0.00 in0.0 mm 0.00 in0.0 mm
08:15 AM 46.3°F7.9°C 31.0°F-0.6°C 55% 1.2 mph SE1.9 kmh SE 3.5 mph5.6 kmh 30.28 in1025.4 mb - 0.00 in0.0 mm 0.00 in0.0 mm
08:20 AM 46.5°F8.1°C 31.2°F-0.4°C 55% Calm Calm 2.3 mph3.7 kmh 30.28 in1025.4 mb - 0.00 in0.0 mm 0.00 in0.0 mm
08:25 AM 46.6°F8.1°C 31.7°F-0.2°C 56% 2.3 mph SE3.7 kmh SE 3.5 mph5.6 kmh 30.28 in1025.4 mb - 0.00 in0.0 mm 0.00 in0.0 mm
08:30 AM 47.1°F8.4°C 31.3°F-0.4°C 54% 2.3 mph SE3.7 kmh SE 4.6 mph7.4 kmh 30.28 in1025.4 mb - 0.00 in0.0 mm 0.00 in0.0 mm
08:35 AM 47.4°F8.6°C 31.1°F-0.5°C 53% 2.3 mph SE3.7 kmh SE 4.6 mph7.4 kmh 30.28 in1025.4 mb - 0.00 in0.0 mm 0.00 in0.0 mm
08:40 AM 47.5°F8.6°C 30.3°F-0.9°C 51% 3.5 mph SE5.6 kmh SE 3.5 mph5.6 kmh 30.28 in1025.4 mb - 0.00 in0.0 mm 0.00 in0.0 mm
08:45 AM 47.5°F8.6°C 30.7°F-0.7°C 52% 3.5 mph SE5.6 kmh SE 3.5 mph5.6 kmh 30.27 in1025.1 mb - 0.00 in0.0 mm 0.00 in0.0 mm
08:50 AM 48.1°F8.9°C 30.8°F-0.7°C 51% 2.3 mph SE3.7 kmh SE 3.5 mph5.6 kmh 30.27 in1025.1 mb - 0.00 in0.0 mm 0.00 in0.0 mm
08:55 AM 49.0°F9.4°C 31.6°F-0.2°C 51% 2.3 mph SE3.7 kmh SE 5.8 mph9.3 kmh 30.27 in1025.1 mb - 0.00 in0.0 mm 0.00 in0.0 mm
09:00 AM 49.9°F9.9°C 30.5°F-0.8°C 47% 4.6 mph SE7.4 kmh SE 6.9 mph11.1 kmh 30.28 in1025.4 mb - 0.00 in0.0 mm 0.00 in0.0 mm
09:10 AM 51.3°F10.7°C 30.7°F-0.7°C 45% 3.5 mph SSE5.6 kmh SSE 4.6 mph7.4 kmh 30.28 in1025.4 mb - 0.00 in0.0 mm 0.00 in0.0 mm
09:15 AM 51.6°F10.9°C 30.4°F-0.9°C 44% 3.5 mph SSE5.6 kmh SSE 3.5 mph5.6 kmh 30.29 in1025.7 mb - 0.00 in0.0 mm 0.00 in0.0 mm
09:20 AM 52.2°F11.2°C 30.3°F-0.9°C 43% 4.6 mph SE7.4 kmh SE 8.1 mph13.0 kmh 30.29 in1025.7 mb - 0.00 in0.0 mm 0.00 in0.0 mm
09:25 AM 53.3°F11.8°C 30.7°F-0.7°C 42% 2.3 mph SE3.7 kmh SE 5.8 mph9.3 kmh 30.29 in1025.7 mb - 0.00 in0.0 mm 0.00 in0.0 mm
09:30 AM 53.9°F12.2°C 30.7°F-0.7°C 41% 1.2 mph SE1.9 kmh SE 4.6 mph7.4 kmh 30.29 in1025.7 mb - 0.00 in0.0 mm 0.00 in0.0 mm
09:35 AM 54.4°F12.4°C 29.3°F-1.5°C 38% 2.3 mph SSE3.7 kmh SSE 4.6 mph7.4 kmh 30.29 in1025.7 mb - 0.00 in0.0 mm 0.00 in0.0 mm
09:40 AM 54.6°F12.6°C 30.7°F-0.7°C 40% 2.3 mph SE3.7 kmh SE 4.6 mph7.4 kmh 30.30 in1026.1 mb - 0.00 in0.0 mm 0.00 in0.0 mm
09:45 AM 54.7°F12.6°C 30.2°F-1.0°C 39% 2.3 mph SE3.7 kmh SE 3.5 mph5.6 kmh 30.30 in1026.1 mb - 0.00 in0.0 mm 0.00 in0.0 mm
09:50 AM 54.4°F12.4°C 30.6°F-0.8°C 40% 3.5 mph SSE5.6 kmh SSE 5.8 mph9.3 kmh 30.31 in1026.4 mb - 0.00 in0.0 mm 0.00 in0.0 mm
09:55 AM 54.3°F12.4°C 29.9°F-1.2°C 39% 3.5 mph SE5.6 kmh SE 3.5 mph5.6 kmh 30.31 in1026.4 mb - 0.00 in0.0 mm 0.00 in0.0 mm
10:00 AM 54.4°F12.4°C 30.5°F-0.8°C 40% 1.2 mph SSE1.9 kmh SSE 3.5 mph5.6 kmh 30.31 in1026.4 mb - 0.00 in0.0 mm 0.00 in0.0 mm
10:10 AM 55.1°F12.8°C 30.6°F-0.8°C 39% 4.6 mph SE7.4 kmh SE 5.8 mph9.3 kmh 30.32 in1026.8 mb - 0.00 in0.0 mm 0.00 in0.0 mm
10:15 AM 55.3°F12.9°C 30.1°F-1.1°C 38% 5.8 mph SE9.3 kmh SE 6.9 mph11.1 kmh 30.32 in1026.8 mb - 0.00 in0.0 mm 0.00 in0.0 mm
10:20 AM 55.4°F13.0°C 30.8°F-0.7°C 39% 4.6 mph SSE7.4 kmh SSE 5.8 mph9.3 kmh 30.32 in1026.8 mb - 0.00 in0.0 mm 0.00 in0.0 mm
10:25 AM 55.5°F13.1°C 30.3°F-0.9°C 38% 3.5 mph SE5.6 kmh SE 3.5 mph5.6 kmh 30.32 in1026.8 mb - 0.00 in0.0 mm 0.00 in0.0 mm
10:30 AM 55.6°F13.1°C 30.4°F-0.9°C 38% 3.5 mph SE5.6 kmh SE 6.9 mph11.1 kmh 30.31 in1026.4 mb - 0.00 in0.0 mm 0.00 in0.0 mm
10:35 AM 55.9°F13.3°C 31.3°F-0.4°C 39% 3.5 mph SSE5.6 kmh SSE 6.9 mph11.1 kmh 30.31 in1026.4 mb - 0.00 in0.0 mm 0.00 in0.0 mm
10:40 AM 56.4°F13.6°C 31.0°F-0.6°C 38% 4.6 mph S7.4 kmh S 11.5 mph18.5 kmh 30.31 in1026.4 mb - 0.00 in0.0 mm 0.00 in0.0 mm
10:45 AM 56.9°F13.8°C 30.2°F-1.0°C 36% 5.8 mph S9.3 kmh S 9.2 mph14.8 kmh 30.31 in1026.4 mb - 0.00 in0.0 mm 0.00 in0.0 mm
10:50 AM 57.1°F13.9°C 31.0°F-0.6°C 37% 3.5 mph SE5.6 kmh SE 4.6 mph7.4 kmh 30.31 in1026.4 mb - 0.00 in0.0 mm 0.00 in0.0 mm
10:55 AM 57.0°F13.9°C 31.0°F-0.6°C 37% 3.5 mph SSE5.6 kmh SSE 8.1 mph13.0 kmh 30.30 in1026.1 mb - 0.00 in0.0 mm 0.00 in0.0 mm
11:00 AM 57.2°F14.0°C 31.1°F-0.5°C 37% 3.5 mph SE5.6 kmh SE 3.5 mph5.6 kmh 30.30 in1026.1 mb - 0.00 in0.0 mm 0.00 in0.0 mm
11:10 AM 56.9°F13.8°C 31.5°F-0.3°C 38% 3.5 mph SE5.6 kmh SE 4.6 mph7.4 kmh 30.29 in1025.7 mb - 0.00 in0.0 mm 0.00 in0.0 mm
11:15 AM 57.0°F13.9°C 31.6°F-0.2°C 38% 2.3 mph SE3.7 kmh SE 4.6 mph7.4 kmh 30.29 in1025.7 mb - 0.00 in0.0 mm 0.00 in0.0 mm
11:20 AM 57.2°F14.0°C 31.8°F-0.1°C 38% 3.5 mph SE5.6 kmh SE 5.8 mph9.3 kmh 30.29 in1025.7 mb - 0.00 in0.0 mm 0.00 in0.0 mm
11:25 AM 57.3°F14.1°C 31.9°F-0.1°C 38% 4.6 mph SSE7.4 kmh SSE 8.1 mph13.0 kmh 30.29 in1025.7 mb - 0.00 in0.0 mm 0.00 in0.0 mm
11:30 AM 57.8°F14.3°C 32.3°F0.2°C 38% 1.2 mph SE1.9 kmh SE 3.5 mph5.6 kmh 30.29 in1025.7 mb - 0.00 in0.0 mm 0.00 in0.0 mm
11:35 AM 58.0°F14.4°C 31.8°F-0.1°C 37% 3.5 mph SE5.6 kmh SE 4.6 mph7.4 kmh 30.28 in1025.4 mb - 0.00 in0.0 mm 0.00 in0.0 mm
11:40 AM 58.2°F14.6°C 31.3°F-0.4°C 36% 3.5 mph SSE5.6 kmh SSE 4.6 mph7.4 kmh 30.28 in1025.4 mb - 0.00 in0.0 mm 0.00 in0.0 mm
11:45 AM 58.5°F14.7°C 31.6°F-0.2°C 36% 2.3 mph S3.7 kmh S 5.8 mph9.3 kmh 30.28 in1025.4 mb - 0.00 in0.0 mm 0.00 in0.0 mm
11:50 AM 59.0°F15.0°C 32.0°F0.0°C 36% 4.6 mph SE7.4 kmh SE 5.8 mph9.3 kmh 30.28 in1025.4 mb - 0.00 in0.0 mm 0.00 in0.0 mm
11:55 AM 59.6°F15.3°C 33.2°F0.7°C 37% 2.3 mph SSE3.7 kmh SSE 3.5 mph5.6 kmh 30.27 in1025.1 mb - 0.00 in0.0 mm 0.00 in0.0 mm
12:00 PM 60.3°F15.7°C 32.5°F0.3°C 35% 3.5 mph S5.6 kmh S 3.5 mph5.6 kmh 30.27 in1025.1 mb - 0.00 in0.0 mm 0.00 in0.0 mm
12:10 PM 60.9°F16.1°C 32.3°F0.2°C 34% 4.6 mph SSE7.4 kmh SSE 6.9 mph11.1 kmh 30.26 in1024.7 mb - 0.00 in0.0 mm 0.00 in0.0 mm
12:15 PM 60.8°F16.0°C 32.3°F0.2°C 34% 2.3 mph SE3.7 kmh SE 3.5 mph5.6 kmh 30.26 in1024.7 mb - 0.00 in0.0 mm 0.00 in0.0 mm
12:20 PM 61.3°F16.3°C 32.6°F0.3°C 34% 4.6 mph SSE7.4 kmh SSE 5.8 mph9.3 kmh 30.25 in1024.4 mb - 0.00 in0.0 mm 0.00 in0.0 mm
12:25 PM 62.1°F16.7°C 34.1°F1.2°C 35% 3.5 mph SSE5.6 kmh SSE 6.9 mph11.1 kmh 30.25 in1024.4 mb - 0.00 in0.0 mm 0.00 in0.0 mm
12:30 PM 62.4°F16.9°C 33.6°F0.9°C 34% 4.6 mph SE7.4 kmh SE 6.9 mph11.1 kmh 30.25 in1024.4 mb - 0.00 in0.0 mm 0.00 in0.0 mm
12:35 PM 62.5°F16.9°C 33.7°F0.9°C 34% 3.5 mph SE5.6 kmh SE 4.6 mph7.4 kmh 30.24 in1024.0 mb - 0.00 in0.0 mm 0.00 in0.0 mm
12:40 PM 62.9°F17.2°C 32.6°F0.3°C 32% 5.8 mph SSE9.3 kmh SSE 4.6 mph7.4 kmh 30.24 in1024.0 mb - 0.00 in0.0 mm 0.00 in0.0 mm
12:45 PM 63.1°F17.3°C 32.7°F0.4°C 32% 5.8 mph SSE9.3 kmh SSE 9.2 mph14.8 kmh 30.24 in1024.0 mb - 0.00 in0.0 mm 0.00 in0.0 mm
12:50 PM 62.8°F17.1°C 33.2°F0.7°C 33% 3.5 mph S5.6 kmh S 6.9 mph11.1 kmh 30.23 in1023.7 mb - 0.00 in0.0 mm 0.00 in0.0 mm
12:55 PM 62.9°F17.2°C 34.1°F1.2°C 34% 3.5 mph SSE5.6 kmh SSE 3.5 mph5.6 kmh 30.23 in1023.7 mb - 0.00 in0.0 mm 0.00 in0.0 mm
01:00 PM 63.0°F17.2°C 33.4°F0.8°C 33% 4.6 mph S7.4 kmh S 6.9 mph11.1 kmh 30.23 in1023.7 mb - 0.00 in0.0 mm 0.00 in0.0 mm
01:10 PM 63.2°F17.3°C 34.3°F1.3°C 34% 2.3 mph SE3.7 kmh SE 3.5 mph5.6 kmh 30.22 in1023.4 mb - 0.00 in0.0 mm 0.00 in0.0 mm
01:15 PM 63.4°F17.4°C 35.2°F1.8°C 35% 3.5 mph SE5.6 kmh SE 4.6 mph7.4 kmh 30.23 in1023.7 mb - 0.00 in0.0 mm 0.00 in0.0 mm
01:20 PM 63.3°F17.4°C 35.2°F1.8°C 35% 3.5 mph SE5.6 kmh SE 10.4 mph16.7 kmh 30.23 in1023.7 mb - 0.00 in0.0 mm 0.00 in0.0 mm
01:25 PM 63.5°F17.5°C 34.6°F1.4°C 34% 2.3 mph S3.7 kmh S 3.5 mph5.6 kmh 30.23 in1023.7 mb - 0.00 in0.0 mm 0.00 in0.0 mm
01:30 PM 64.1°F17.8°C 35.1°F1.7°C 34% 4.6 mph S7.4 kmh S 8.1 mph13.0 kmh 30.22 in1023.4 mb - 0.00 in0.0 mm 0.00 in0.0 mm
01:35 PM 64.6°F18.1°C 35.6°F2.0°C 34% 3.5 mph SSE5.6 kmh SSE 8.1 mph13.0 kmh 30.22 in1023.4 mb - 0.00 in0.0 mm 0.00 in0.0 mm
01:40 PM 65.1°F18.4°C 35.2°F1.8°C 33% 3.5 mph S5.6 kmh S 6.9 mph11.1 kmh 30.22 in1023.4 mb - 0.00 in0.0 mm 0.00 in0.0 mm
01:45 PM 65.5°F18.6°C 34.8°F1.6°C 32% 4.6 mph S7.4 kmh S 5.8 mph9.3 kmh 30.22 in1023.4 mb - 0.00 in0.0 mm 0.00 in0.0 mm
01:50 PM 66.0°F18.9°C 33.6°F0.9°C 30% 4.6 mph S7.4 kmh S 10.4 mph16.7 kmh 30.22 in1023.4 mb - 0.00 in0.0 mm 0.00 in0.0 mm
01:55 PM 66.4°F19.1°C 32.3°F0.2°C 28% 6.9 mph SSE11.1 kmh SSE 9.2 mph14.8 kmh 30.22 in1023.4 mb - 0.00 in0.0 mm 0.00 in0.0 mm
02:00 PM 66.3°F19.1°C 31.3°F-0.4°C 27% 4.6 mph SSE7.4 kmh SSE 4.6 mph7.4 kmh 30.22 in1023.4 mb - 0.00 in0.0 mm 0.00 in0.0 mm
02:10 PM 66.4°F19.1°C 28.5°F-1.9°C 24% 3.5 mph SSE5.6 kmh SSE 11.5 mph18.5 kmh 30.22 in1023.4 mb - 0.00 in0.0 mm 0.00 in0.0 mm
02:15 PM 66.5°F19.2°C 26.4°F-3.1°C 22% 8.1 mph SSE13.0 kmh SSE 16.1 mph25.9 kmh 30.21 in1023.0 mb - 0.00 in0.0 mm 0.00 in0.0 mm
02:20 PM 66.3°F19.1°C 26.3°F-3.2°C 22% 5.8 mph SSE9.3 kmh SSE 8.1 mph13.0 kmh 30.21 in1023.0 mb - 0.00 in0.0 mm 0.00 in0.0 mm
02:25 PM 66.1°F18.9°C 25.0°F-3.9°C 21% 9.2 mph S14.8 kmh S 15.0 mph24.1 kmh 30.21 in1023.0 mb - 0.00 in0.0 mm 0.00 in0.0 mm
02:30 PM 66.0°F18.9°C 27.1°F-2.7°C 23% 4.6 mph S7.4 kmh S 13.8 mph22.2 kmh 30.21 in1023.0 mb - 0.00 in0.0 mm 0.00 in0.0 mm
02:35 PM 65.8°F18.8°C 27.0°F-2.8°C 23% 5.8 mph S9.3 kmh S 11.5 mph18.5 kmh 30.21 in1023.0 mb - 0.00 in0.0 mm 0.00 in0.0 mm
02:40 PM 65.6°F18.7°C 26.8°F-2.9°C 23% 6.9 mph S11.1 kmh S 10.4 mph16.7 kmh 30.21 in1023.0 mb - 0.00 in0.0 mm 0.00 in0.0 mm
02:45 PM 65.6°F18.7°C 29.7°F-1.3°C 26% 2.3 mph SSE3.7 kmh SSE 5.8 mph9.3 kmh 30.21 in1023.0 mb - 0.00 in0.0 mm 0.00 in0.0 mm
02:50 PM 65.4°F18.6°C 29.6°F-1.3°C 26% 3.5 mph S5.6 kmh S 3.5 mph5.6 kmh 30.21 in1023.0 mb - 0.00 in0.0 mm 0.00 in0.0 mm
02:55 PM 65.3°F18.5°C 29.5°F-1.4°C 26% 4.6 mph S7.4 kmh S 9.2 mph14.8 kmh 30.21 in1023.0 mb - 0.00 in0.0 mm 0.00 in0.0 mm
03:00 PM 65.1°F18.4°C 29.3°F-1.5°C 26% 5.8 mph S9.3 kmh S 10.4 mph16.7 kmh 30.21 in1023.0 mb - 0.00 in0.0 mm 0.00 in0.0 mm
03:10 PM 64.9°F18.3°C 30.1°F-1.1°C 27% 2.3 mph S3.7 kmh S 4.6 mph7.4 kmh 30.21 in1023.0 mb - 0.00 in0.0 mm 0.00 in0.0 mm
03:15 PM 64.8°F18.2°C 30.9°F-0.6°C 28% 2.3 mph S3.7 kmh S 3.5 mph5.6 kmh 30.21 in1023.0 mb - 0.00 in0.0 mm 0.00 in0.0 mm
03:20 PM 64.7°F18.2°C 31.7°F-0.2°C 29% 3.5 mph S5.6 kmh S 3.5 mph5.6 kmh 30.22 in1023.4 mb - 0.00 in0.0 mm 0.00 in0.0 mm
03:25 PM 64.5°F18.1°C 31.5°F-0.3°C 29% 2.3 mph SSW3.7 kmh SSW 5.8 mph9.3 kmh 30.22 in1023.4 mb - 0.00 in0.0 mm 0.00 in0.0 mm
03:30 PM 64.4°F18.0°C 31.4°F-0.3°C 29% 4.6 mph S7.4 kmh S 12.7 mph20.4 kmh 30.22 in1023.4 mb - 0.00 in0.0 mm 0.00 in0.0 mm
03:35 PM 64.2°F17.9°C 31.3°F-0.4°C 29% 3.5 mph S5.6 kmh S 5.8 mph9.3 kmh 30.22 in1023.4 mb - 0.00 in0.0 mm 0.00 in0.0 mm
03:40 PM 64.1°F17.8°C 30.3°F-0.9°C 28% 3.5 mph S5.6 kmh S 4.6 mph7.4 kmh 30.22 in1023.4 mb - 0.00 in0.0 mm 0.00 in0.0 mm
03:45 PM 63.9°F17.7°C 31.8°F-0.1°C 30% 2.3 mph SE3.7 kmh SE 2.3 mph3.7 kmh 30.23 in1023.7 mb - 0.00 in0.0 mm 0.00 in0.0 mm
03:50 PM 63.6°F17.6°C 34.7°F1.5°C 34% 3.5 mph S5.6 kmh S 6.9 mph11.1 kmh 30.23 in1023.7 mb - 0.00 in0.0 mm 0.00 in0.0 mm
03:55 PM 63.2°F17.3°C 35.1°F1.7°C 35% 3.5 mph SSE5.6 kmh SSE 4.6 mph7.4 kmh 30.23 in1023.7 mb - 0.00 in0.0 mm 0.00 in0.0 mm
04:00 PM 62.9°F17.2°C 35.5°F1.9°C 36% 3.5 mph SSE5.6 kmh SSE 4.6 mph7.4 kmh 30.23 in1023.7 mb - 0.00 in0.0 mm 0.00 in0.0 mm
04:10 PM 62.5°F16.9°C 35.8°F2.1°C 37% 2.3 mph SE3.7 kmh SE 3.5 mph5.6 kmh 30.23 in1023.7 mb - 0.00 in0.0 mm 0.00 in0.0 mm
04:15 PM 62.1°F16.7°C 36.2°F2.3°C 38% 1.2 mph SSE1.9 kmh SSE 2.3 mph3.7 kmh 30.23 in1023.7 mb - 0.00 in0.0 mm 0.00 in0.0 mm
04:20 PM 61.9°F16.6°C 36.6°F2.6°C 39% 1.2 mph S1.9 kmh S 2.3 mph3.7 kmh 30.23 in1023.7 mb - 0.00 in0.0 mm 0.00 in0.0 mm
04:25 PM 61.6°F16.4°C 37.1°F2.8°C 40% 2.3 mph SSE3.7 kmh SSE 3.5 mph5.6 kmh 30.23 in1023.7 mb - 0.00 in0.0 mm 0.00 in0.0 mm
04:30 PM 61.5°F16.4°C 36.9°F2.7°C 40% 1.2 mph SE1.9 kmh SE 1.2 mph1.9 kmh 30.23 in1023.7 mb - 0.00 in0.0 mm 0.00 in0.0 mm
04:35 PM 61.2°F16.2°C 37.3°F2.9°C 41% 1.2 mph SSE1.9 kmh SSE 3.5 mph5.6 kmh 30.23 in1023.7 mb - 0.00 in0.0 mm 0.00 in0.0 mm
04:40 PM 61.0°F16.1°C 37.7°F3.2°C 42% 1.2 mph SSE1.9 kmh SSE 2.3 mph3.7 kmh 30.23 in1023.7 mb - 0.00 in0.0 mm 0.00 in0.0 mm
04:45 PM 60.7°F15.9°C 37.5°F3.1°C 42% 1.2 mph SSE1.9 kmh SSE 2.3 mph3.7 kmh 30.22 in1023.4 mb - 0.00 in0.0 mm 0.00 in0.0 mm
04:50 PM 60.5°F15.8°C 37.3°F2.9°C 42% Calm Calm 1.2 mph1.9 kmh 30.22 in1023.4 mb - 0.00 in0.0 mm 0.00 in0.0 mm
04:55 PM 60.2°F15.7°C 38.2°F3.4°C 44% 1.2 mph SE1.9 kmh SE 3.5 mph5.6 kmh 30.22 in1023.4 mb - 0.00 in0.0 mm 0.00 in0.0 mm
05:00 PM 59.9°F15.5°C 38.5°F3.6°C 45% 1.2 mph SSE1.9 kmh SSE 3.5 mph5.6 kmh 30.23 in1023.7 mb - 0.00 in0.0 mm 0.00 in0.0 mm
05:10 PM 59.5°F15.3°C 38.1°F3.4°C 45% Calm Calm 2.3 mph3.7 kmh 30.23 in1023.7 mb - 0.00 in0.0 mm 0.00 in0.0 mm
05:15 PM 59.2°F15.1°C 37.8°F3.2°C 45% Calm Calm 2.3 mph3.7 kmh 30.22 in1023.4 mb - 0.00 in0.0 mm 0.00 in0.0 mm
05:20 PM 58.9°F14.9°C 37.6°F3.1°C 45% 1.2 mph S1.9 kmh S 3.5 mph5.6 kmh 30.22 in1023.4 mb - 0.00 in0.0 mm 0.00 in0.0 mm
05:25 PM 58.8°F14.9°C 37.5°F3.1°C 45% 2.3 mph S3.7 kmh S 4.6 mph7.4 kmh 30.22 in1023.4 mb - 0.00 in0.0 mm 0.00 in0.0 mm
05:30 PM 58.8°F14.9°C 36.4°F2.4°C 43% 2.3 mph S3.7 kmh S 4.6 mph7.4 kmh 30.22 in1023.4 mb - 0.00 in0.0 mm 0.00 in0.0 mm
05:35 PM 58.9°F14.9°C 35.8°F2.1°C 42% 2.3 mph SSE3.7 kmh SSE 3.5 mph5.6 kmh 30.22 in1023.4 mb - 0.00 in0.0 mm 0.00 in0.0 mm
05:40 PM 58.8°F14.9°C 35.7°F2.1°C 42% 1.2 mph S1.9 kmh S 2.3 mph3.7 kmh 30.22 in1023.4 mb - 0.00 in0.0 mm 0.00 in0.0 mm
05:45 PM 58.5°F14.7°C 36.1°F2.3°C 43% 1.2 mph SSW1.9 kmh SSW 3.5 mph5.6 kmh 30.23 in1023.7 mb - 0.00 in0.0 mm 0.00 in0.0 mm
05:50 PM 58.4°F14.7°C 35.9°F2.2°C 43% 1.2 mph SSW1.9 kmh SSW 3.5 mph5.6 kmh 30.23 in1023.7 mb - 0.00 in0.0 mm 0.00 in0.0 mm
05:55 PM 58.2°F14.6°C 36.4°F2.4°C 44% 1.2 mph S1.9 kmh S 3.5 mph5.6 kmh 30.23 in1023.7 mb - 0.00 in0.0 mm 0.00 in0.0 mm
06:00 PM 58.0°F14.4°C 36.2°F2.3°C 44% 3.5 mph SSW5.6 kmh SSW 5.8 mph9.3 kmh 30.23 in1023.7 mb - 0.00 in0.0 mm 0.00 in0.0 mm
06:10 PM 57.7°F14.3°C 36.5°F2.5°C 45% 1.2 mph SSW1.9 kmh SSW 2.3 mph3.7 kmh 30.23 in1023.7 mb - 0.00 in0.0 mm 0.00 in0.0 mm
06:15 PM 57.4°F14.1°C 36.8°F2.7°C 46% Calm Calm 2.3 mph3.7 kmh 30.23 in1023.7 mb - 0.00 in0.0 mm 0.00 in0.0 mm
06:20 PM 57.4°F14.1°C 36.8°F2.7°C 46% 1.2 mph SW1.9 kmh SW 3.5 mph5.6 kmh 30.24 in1024.0 mb - 0.00 in0.0 mm 0.00 in0.0 mm
06:25 PM 56.8°F13.8°C 36.8°F2.7°C 47% 1.2 mph SSW1.9 kmh SSW 3.5 mph5.6 kmh 30.24 in1024.0 mb - 0.00 in0.0 mm 0.00 in0.0 mm
06:30 PM 56.5°F13.6°C 37.0°F2.8°C 48% 1.2 mph S1.9 kmh S 2.3 mph3.7 kmh 30.24 in1024.0 mb - 0.00 in0.0 mm 0.00 in0.0 mm
06:35 PM 56.4°F13.6°C 37.5°F3.1°C 49% 1.2 mph SSW1.9 kmh SSW 3.5 mph5.6 kmh 30.24 in1024.0 mb - 0.00 in0.0 mm 0.00 in0.0 mm
06:40 PM 56.2°F13.4°C 37.3°F2.9°C 49% 1.2 mph SSW1.9 kmh SSW 3.5 mph5.6 kmh 30.24 in1024.0 mb - 0.00 in0.0 mm 0.00 in0.0 mm
06:45 PM 55.9°F13.3°C 37.5°F3.1°C 50% Calm Calm -- 30.24 in1024.0 mb - 0.00 in0.0 mm 0.00 in0.0 mm
06:50 PM 55.6°F13.1°C 37.7°F3.2°C 51% Calm Calm 1.2 mph1.9 kmh 30.25 in1024.4 mb - 0.00 in0.0 mm 0.00 in0.0 mm
06:55 PM 55.5°F13.1°C 37.7°F3.2°C 51% Calm Calm 2.3 mph3.7 kmh 30.25 in1024.4 mb - 0.00 in0.0 mm 0.00 in0.0 mm
07:00 PM 55.3°F12.9°C 38.0°F3.3°C 52% Calm Calm -- 30.25 in1024.4 mb - 0.00 in0.0 mm 0.00 in0.0 mm
07:10 PM 54.6°F12.6°C 38.3°F3.5°C 54% 1.2 mph S1.9 kmh S 2.3 mph3.7 kmh 30.25 in1024.4 mb - 0.00 in0.0 mm 0.00 in0.0 mm
07:15 PM 54.5°F12.5°C 38.1°F3.4°C 54% Calm Calm 1.2 mph1.9 kmh 30.25 in1024.4 mb - 0.00 in0.0 mm 0.00 in0.0 mm
07:20 PM 54.2°F12.3°C 38.4°F3.6°C 55% 1.2 mph SW1.9 kmh SW 3.5 mph5.6 kmh 30.26 in1024.7 mb - 0.00 in0.0 mm 0.00 in0.0 mm
07:25 PM 54.3°F12.4°C 38.9°F3.8°C 56% 1.2 mph SW1.9 kmh SW 2.3 mph3.7 kmh 30.26 in1024.7 mb - 0.00 in0.0 mm 0.00 in0.0 mm
07:30 PM 54.0°F12.2°C 38.7°F3.7°C 56% Calm Calm -- 30.26 in1024.7 mb - 0.00 in0.0 mm 0.00 in0.0 mm
07:35 PM 53.7°F12.1°C 38.4°F3.6°C 56% Calm Calm 1.2 mph1.9 kmh 30.26 in1024.7 mb - 0.00 in0.0 mm 0.00 in0.0 mm
07:40 PM 53.5°F11.9°C 39.1°F3.9°C 58% Calm Calm 2.3 mph3.7 kmh 30.26 in1024.7 mb - 0.00 in0.0 mm 0.00 in0.0 mm
07:45 PM 53.2°F11.8°C 38.8°F3.8°C 58% Calm Calm -- 30.26 in1024.7 mb - 0.00 in0.0 mm 0.00 in0.0 mm
07:50 PM 53.2°F11.8°C 38.8°F3.8°C 58% Calm Calm 1.2 mph1.9 kmh 30.26 in1024.7 mb - 0.00 in0.0 mm 0.00 in0.0 mm
07:55 PM 53.1°F11.7°C 39.2°F4.0°C 59% Calm Calm 2.3 mph3.7 kmh 30.26 in1024.7 mb - 0.00 in0.0 mm 0.00 in0.0 mm
08:00 PM 52.9°F11.6°C 39.0°F3.9°C 59% Calm Calm -- 30.26 in1024.7 mb - 0.00 in0.0 mm 0.00 in0.0 mm
08:10 PM 52.5°F11.4°C 39.4°F4.1°C 61% Calm Calm 1.2 mph1.9 kmh 30.26 in1024.7 mb - 0.00 in0.0 mm 0.00 in0.0 mm
08:15 PM 52.2°F11.2°C 39.6°F4.2°C 62% 1.2 mph SW1.9 kmh SW 2.3 mph3.7 kmh 30.26 in1024.7 mb - 0.00 in0.0 mm 0.00 in0.0 mm
08:20 PM 52.4°F11.3°C 39.3°F4.1°C 61% Calm Calm -- 30.27 in1025.1 mb - 0.00 in0.0 mm 0.00 in0.0 mm
08:25 PM 52.4°F11.3°C 39.8°F4.3°C 62% Calm Calm 1.2 mph1.9 kmh 30.27 in1025.1 mb - 0.00 in0.0 mm 0.00 in0.0 mm
08:30 PM 52.2°F11.2°C 39.6°F4.2°C 62% Calm Calm -- 30.27 in1025.1 mb - 0.00 in0.0 mm 0.00 in0.0 mm
08:35 PM 52.0°F11.1°C 39.3°F4.1°C 62% Calm Calm -- 30.27 in1025.1 mb - 0.00 in0.0 mm 0.00 in0.0 mm
08:40 PM 51.5°F10.8°C 39.8°F4.3°C 64% Calm Calm -- 30.27 in1025.1 mb - 0.00 in0.0 mm 0.00 in0.0 mm
08:45 PM 51.2°F10.7°C 39.8°F4.3°C 65% Calm Calm -- 30.27 in1025.1 mb - 0.00 in0.0 mm 0.00 in0.0 mm
08:50 PM 50.7°F10.4°C 39.8°F4.3°C 66% Calm Calm 1.2 mph1.9 kmh 30.27 in1025.1 mb - 0.00 in0.0 mm 0.00 in0.0 mm
08:55 PM 50.6°F10.3°C 40.0°F4.4°C 67% Calm Calm -- 30.27 in1025.1 mb - 0.00 in0.0 mm 0.00 in0.0 mm
09:00 PM 50.4°F10.2°C 39.9°F4.4°C 67% Calm Calm -- 30.27 in1025.1 mb - 0.00 in0.0 mm 0.00 in0.0 mm
09:10 PM 49.9°F9.9°C 39.8°F4.3°C 68% Calm Calm -- 30.27 in1025.1 mb - 0.00 in0.0 mm 0.00 in0.0 mm
09:15 PM 49.8°F9.9°C 39.7°F4.3°C 68% Calm Calm 1.2 mph1.9 kmh 30.27 in1025.1 mb - 0.00 in0.0 mm 0.00 in0.0 mm
09:20 PM 49.6°F9.8°C 39.9°F4.4°C 69% Calm Calm 1.2 mph1.9 kmh 30.27 in1025.1 mb - 0.00 in0.0 mm 0.00 in0.0 mm
09:25 PM 49.4°F9.7°C 40.1°F4.5°C 70% Calm Calm -- 30.27 in1025.1 mb - 0.00 in0.0 mm 0.00 in0.0 mm
09:30 PM 49.4°F9.7°C 40.0°F4.4°C 70% Calm Calm 2.3 mph3.7 kmh 30.27 in1025.1 mb - 0.00 in0.0 mm 0.00 in0.0 mm
09:35 PM 49.7°F9.8°C 39.5°F4.2°C 68% 1.2 mph WSW1.9 kmh WSW 2.3 mph3.7 kmh 30.27 in1025.1 mb - 0.00 in0.0 mm 0.00 in0.0 mm
09:40 PM 50.2°F10.1°C 39.6°F4.2°C 67% 1.2 mph NW1.9 kmh NW 1.2 mph1.9 kmh 30.27 in1025.1 mb - 0.00 in0.0 mm 0.00 in0.0 mm
09:45 PM 50.1°F10.1°C 39.2°F4.0°C 66% Calm Calm 1.2 mph1.9 kmh 30.27 in1025.1 mb - 0.00 in0.0 mm 0.00 in0.0 mm
09:50 PM 50.1°F10.1°C 39.2°F4.0°C 66% Calm Calm 1.2 mph1.9 kmh 30.27 in1025.1 mb - 0.00 in0.0 mm 0.00 in0.0 mm
09:55 PM 50.0°F10.0°C 39.1°F3.9°C 66% Calm Calm 1.2 mph1.9 kmh 30.27 in1025.1 mb - 0.00 in0.0 mm 0.00 in0.0 mm
10:00 PM 49.8°F9.9°C 39.3°F4.1°C 67% Calm Calm 1.2 mph1.9 kmh 30.27 in1025.1 mb - 0.00 in0.0 mm 0.00 in0.0 mm
10:10 PM 49.5°F9.7°C 39.0°F3.9°C 67% Calm Calm -- 30.27 in1025.1 mb - 0.00 in0.0 mm 0.00 in0.0 mm
10:15 PM 49.2°F9.6°C 39.1°F3.9°C 68% Calm Calm -- 30.27 in1025.1 mb - 0.00 in0.0 mm 0.00 in0.0 mm
10:20 PM 49.2°F9.6°C 39.1°F3.9°C 68% Calm Calm -- 30.26 in1024.7 mb - 0.00 in0.0 mm 0.00 in0.0 mm
10:25 PM 49.0°F9.4°C 38.9°F3.8°C 68% Calm Calm -- 30.27 in1025.1 mb - 0.00 in0.0 mm 0.00 in0.0 mm
10:30 PM 48.9°F9.4°C 39.2°F4.0°C 69% Calm Calm -- 30.26 in1024.7 mb - 0.00 in0.0 mm 0.00 in0.0 mm
10:35 PM 48.8°F9.3°C 39.1°F3.9°C 69% 1.2 mph W1.9 kmh W 2.3 mph3.7 kmh 30.27 in1025.1 mb - 0.00 in0.0 mm 0.00 in0.0 mm
10:40 PM 48.7°F9.3°C 39.4°F4.1°C 70% 1.2 mph WSW1.9 kmh WSW 3.5 mph5.6 kmh 30.27 in1025.1 mb - 0.00 in0.0 mm 0.00 in0.0 mm
10:45 PM 48.7°F9.3°C 39.4°F4.1°C 70% 1.2 mph WSW1.9 kmh WSW 1.2 mph1.9 kmh 30.27 in1025.1 mb - 0.00 in0.0 mm 0.00 in0.0 mm
10:50 PM 48.7°F9.3°C 39.4°F4.1°C 70% 1.2 mph WSW1.9 kmh WSW 3.5 mph5.6 kmh 30.27 in1025.1 mb - 0.00 in0.0 mm 0.00 in0.0 mm
10:55 PM 48.8°F9.3°C 39.4°F4.1°C 70% Calm Calm 2.3 mph3.7 kmh 30.27 in1025.1 mb - 0.00 in0.0 mm 0.00 in0.0 mm
11:00 PM 48.7°F9.3°C 39.4°F4.1°C 70% 1.2 mph WSW1.9 kmh WSW 2.3 mph3.7 kmh 30.27 in1025.1 mb - 0.00 in0.0 mm 0.00 in0.0 mm
11:10 PM 48.5°F9.2°C 39.5°F4.2°C 71% 1.2 mph WSW1.9 kmh WSW 3.5 mph5.6 kmh 30.27 in1025.1 mb - 0.00 in0.0 mm 0.00 in0.0 mm
11:15 PM 48.3°F9.1°C 39.4°F4.1°C 71% 1.2 mph WSW1.9 kmh WSW 2.3 mph3.7 kmh 30.27 in1025.1 mb - 0.00 in0.0 mm 0.00 in0.0 mm
11:20 PM 48.2°F9.0°C 39.6°F4.2°C 72% 1.2 mph WSW1.9 kmh WSW 2.3 mph3.7 kmh 30.27 in1025.1 mb - 0.00 in0.0 mm 0.00 in0.0 mm
11:25 PM 48.2°F9.0°C 39.6°F4.2°C 72% Calm Calm -- 30.27 in1025.1 mb - 0.00 in0.0 mm 0.00 in0.0 mm
11:30 PM 48.0°F8.9°C 39.4°F4.1°C 72% Calm Calm -- 30.27 in1025.1 mb - 0.00 in0.0 mm 0.00 in0.0 mm
11:35 PM 47.8°F8.8°C 39.2°F4.0°C 72% Calm Calm -- 30.27 in1025.1 mb - 0.00 in0.0 mm 0.00 in0.0 mm
11:40 PM 47.7°F8.7°C 39.5°F4.2°C 73% Calm Calm 1.2 mph1.9 kmh 30.27 in1025.1 mb - 0.00 in0.0 mm 0.00 in0.0 mm
11:45 PM 47.6°F8.7°C 39.4°F4.1°C 73% Calm Calm -- 30.27 in1025.1 mb - 0.00 in0.0 mm 0.00 in0.0 mm
11:50 PM 47.6°F8.7°C 39.4°F4.1°C 73% Calm Calm -- 30.26 in1024.7 mb - 0.00 in0.0 mm 0.00 in0.0 mm
11:55 PM 47.6°F8.7°C 39.4°F4.1°C 73% Calm Calm 1.2 mph1.9 kmh 30.26 in1024.7 mb - 0.00 in0.0 mm 0.00 in0.0 mm